SCRIPT_RESULTS Banner
TAF for KPDX

by Dr. Günther Eichhorn

TAF for KPDX provided by aerobaticsweb.org
Current time: Saturday, 10 Dec, 2022, 08:28 UTC
(This may take a minute, please be patient)


The most recent TAF forecast from KPDX in our system was generated at
2022/12/10 06:42
The forecast is:
KPDX 2022/12/10 06:42
TAF KPDX 100539Z 1006/1106 12014G24KT 6SM -RA BR OVC030 WS020/18035KT
FM100700 12015G25KT 6SM -RA BKN035 OVC050 WS020/18035KT
FM101100 16013KT P6SM -RA OVC035
FM102200 15008KT 6SM -RA BR OVC050



access provided by Dr. Guenther Eichhorn at aerobaticsweb.org